createdAt,value
2022-11-05T00:00:44.091Z,80.88
2022-11-05T00:01:44.695Z,80.68
2022-11-05T00:02:45.287Z,80.58
2022-11-05T00:03:45.950Z,80.47
2022-11-05T00:04:46.531Z,80.17
2022-11-05T00:05:47.126Z,79.86
2022-11-05T00:06:47.674Z,79.42
2022-11-05T00:07:48.226Z,78.71
2022-11-05T00:08:48.800Z,78.06
2022-11-05T00:09:49.396Z,77.49
2022-11-05T00:10:50.108Z,77.39
2022-11-05T00:11:50.668Z,77.39
2022-11-05T00:12:51.219Z,77.59
2022-11-05T00:13:51.780Z,77.70
2022-11-05T00:14:52.335Z,77.80
2022-11-05T00:15:52.973Z,77.90
2022-11-05T00:16:53.530Z,78.20
2022-11-05T00:17:54.076Z,78.55
2022-11-05T00:18:54.644Z,78.85
2022-11-05T00:19:55.195Z,79.05
2022-11-05T00:20:55.810Z,79.25
2022-11-05T00:21:56.371Z,79.46
2022-11-05T00:22:56.921Z,79.66
2022-11-05T00:23:57.478Z,79.77
2022-11-05T00:24:58.052Z,80.07
2022-11-05T00:25:58.723Z,80.58
2022-11-05T00:26:59.279Z,81.02
2022-11-05T00:27:59.843Z,81.33
2022-11-05T00:29:00.403Z,81.43
2022-11-05T00:30:00.967Z,81.63
2022-11-05T00:31:01.560Z,81.84
2022-11-05T00:32:02.124Z,81.73
2022-11-05T00:33:02.673Z,81.70
2022-11-05T00:34:03.233Z,81.59
2022-11-05T00:35:03.788Z,81.39
2022-11-05T00:36:04.368Z,81.29
2022-11-05T00:37:04.919Z,80.98
2022-11-05T00:38:05.483Z,80.98
2022-11-05T00:39:06.030Z,81.43
2022-11-05T00:40:06.614Z,82.04
2022-11-05T00:41:07.315Z,82.34
2022-11-05T00:42:07.877Z,82.65
2022-11-05T00:43:08.821Z,82.65
2022-11-05T00:44:09.158Z,82.85
2022-11-05T00:45:09.734Z,83.15
2022-11-05T00:46:10.347Z,83.46
2022-11-05T00:47:10.901Z,84.01
2022-11-05T00:48:11.445Z,84.17
2022-11-05T00:49:11.999Z,84.28
2022-11-05T00:50:12.558Z,84.38
2022-11-05T00:51:13.189Z,84.31
2022-11-05T00:52:13.741Z,84.28
2022-11-05T00:53:14.523Z,84.31
2022-11-05T00:54:15.147Z,84.07
2022-11-05T00:55:15.719Z,83.91
2022-11-05T00:56:16.428Z,83.70
2022-11-05T00:57:16.979Z,83.70
2022-11-05T00:58:17.536Z,83.84
2022-11-05T00:59:18.081Z,84.05
2022-11-05T01:00:18.638Z,84.15
2022-11-05T01:01:19.466Z,84.25
2022-11-05T01:02:20.342Z,84.25
2022-11-05T01:03:20.963Z,84.25
2022-11-05T01:04:21.516Z,84.15
2022-11-05T01:05:22.071Z,84.05
2022-11-05T01:06:22.655Z,84.05
2022-11-05T01:07:23.205Z,83.95
2022-11-05T01:08:23.751Z,83.95
2022-11-05T01:09:24.322Z,83.95
2022-11-05T01:10:24.909Z,83.84
2022-11-05T01:11:25.542Z,83.84
2022-11-05T01:12:26.085Z,83.74
2022-11-05T01:13:26.645Z,83.64
2022-11-05T01:14:27.202Z,83.74
2022-11-05T01:15:27.766Z,83.74
2022-11-05T01:16:28.435Z,83.64
2022-11-05T01:17:28.980Z,83.64
2022-11-05T01:18:29.530Z,83.44
2022-11-05T01:19:30.084Z,83.58
2022-11-05T01:20:30.640Z,83.78
2022-11-05T01:21:31.268Z,83.98
2022-11-05T01:22:31.827Z,84.29
2022-11-05T01:23:32.383Z,84.50
2022-11-05T01:24:32.946Z,84.70
2022-11-05T01:25:33.517Z,84.90
2022-11-05T01:26:34.211Z,84.90
2022-11-05T01:27:34.759Z,84.90
2022-11-05T01:28:35.396Z,84.80
2022-11-05T01:29:35.999Z,84.50
2022-11-05T01:30:36.544Z,84.29
2022-11-05T01:31:37.120Z,84.33
2022-11-05T01:32:37.683Z,84.43
2022-11-05T01:33:38.238Z,84.43
2022-11-05T01:34:38.793Z,84.43
2022-11-05T01:35:39.348Z,84.53
2022-11-05T01:36:39.925Z,84.64
2022-11-05T01:37:40.515Z,84.74
2022-11-05T01:38:41.063Z,84.43
2022-11-05T01:39:41.606Z,84.23
2022-11-05T01:40:42.190Z,84.06
2022-11-05T01:41:42.774Z,84.06
2022-11-05T01:42:43.332Z,84.17
2022-11-05T01:43:43.893Z,84.06
2022-11-05T01:44:44.444Z,84.06
2022-11-05T01:45:44.997Z,84.06
2022-11-05T01:46:45.658Z,84.06
2022-11-05T01:47:46.215Z,83.96
2022-11-05T01:48:46.765Z,83.86
2022-11-05T01:49:47.314Z,83.56
2022-11-05T01:50:47.896Z,82.94
2022-11-05T01:51:48.525Z,82.64
2022-11-05T01:52:49.083Z,82.64
2022-11-05T01:53:49.628Z,82.54
2022-11-05T01:54:50.186Z,82.43
2022-11-05T01:55:50.767Z,82.54
2022-11-05T01:56:51.461Z,82.50
2022-11-05T01:57:52.043Z,82.50
2022-11-05T01:58:52.593Z,82.50
2022-11-05T01:59:53.154Z,82.29
2022-11-05T02:00:53.699Z,82.09
2022-11-05T02:01:54.487Z,81.85
2022-11-05T02:02:55.333Z,81.54
2022-11-05T02:03:55.985Z,81.44
2022-11-05T02:04:56.558Z,81.44
2022-11-05T02:05:57.108Z,81.58
2022-11-05T02:06:57.689Z,81.68
2022-11-05T02:07:58.239Z,81.79
2022-11-05T02:08:58.796Z,81.99
2022-11-05T02:09:59.349Z,81.99
2022-11-05T02:10:59.919Z,82.09
2022-11-05T02:12:00.583Z,82.05
2022-11-05T02:13:01.132Z,81.85
2022-11-05T02:14:01.682Z,81.34
2022-11-05T02:15:02.276Z,81.04
2022-11-05T02:16:02.832Z,80.93
2022-11-05T02:17:03.520Z,80.73
2022-11-05T02:18:04.077Z,80.63
2022-11-05T02:19:04.632Z,80.52
2022-11-05T02:20:05.201Z,80.22
2022-11-05T02:21:05.748Z,80.05
2022-11-05T02:22:06.363Z,80.05
2022-11-05T02:23:06.916Z,80.26
2022-11-05T02:24:07.469Z,80.66
2022-11-05T02:25:08.011Z,80.87
2022-11-05T02:26:08.581Z,80.87
2022-11-05T02:27:09.241Z,80.97
2022-11-05T02:28:09.793Z,80.87
2022-11-05T02:29:10.367Z,80.63
2022-11-05T02:30:10.915Z,80.42
2022-11-05T02:31:11.469Z,80.11
2022-11-05T02:32:12.057Z,79.81
2022-11-05T02:33:12.894Z,79.50
2022-11-05T02:34:13.143Z,79.41
2022-11-05T02:35:13.697Z,79.30
2022-11-05T02:36:14.254Z,79.10
2022-11-05T02:37:14.855Z,79.10
2022-11-05T02:38:15.405Z,79.03
2022-11-05T02:39:15.970Z,79.24
2022-11-05T02:40:16.524Z,79.34
2022-11-05T02:41:17.160Z,79.44
2022-11-05T02:42:17.856Z,79.54
2022-11-05T02:43:18.411Z,79.64
2022-11-05T02:44:18.965Z,79.64
2022-11-05T02:45:19.520Z,79.54
2022-11-05T02:46:20.065Z,79.54
2022-11-05T02:47:20.651Z,79.54
2022-11-05T02:48:21.215Z,79.64
2022-11-05T02:49:21.766Z,79.64
2022-11-05T02:50:22.319Z,79.75
2022-11-05T02:51:22.869Z,79.64
2022-11-05T02:52:23.474Z,79.34
2022-11-05T02:53:24.047Z,78.89
2022-11-05T02:54:24.603Z,78.69
2022-11-05T02:55:25.152Z,78.39
2022-11-05T02:56:25.725Z,78.19
2022-11-05T02:57:26.434Z,77.98
2022-11-05T02:58:26.995Z,77.78
2022-11-05T02:59:27.545Z,77.78
2022-11-05T03:00:28.092Z,77.78
2022-11-05T03:01:28.809Z,77.87
2022-11-05T03:02:29.607Z,77.87
2022-11-05T03:03:30.205Z,77.98
2022-11-05T03:04:30.794Z,77.98
2022-11-05T03:05:31.346Z,77.98
2022-11-05T03:06:31.894Z,77.98
2022-11-05T03:07:32.686Z,77.87
2022-11-05T03:08:33.233Z,77.87
2022-11-05T03:09:33.788Z,77.87
2022-11-05T03:10:34.407Z,77.87
2022-11-05T03:11:34.987Z,77.78
2022-11-05T03:12:35.628Z,77.78
2022-11-05T03:13:36.188Z,77.87
2022-11-05T03:14:36.739Z,77.98
2022-11-05T03:15:37.292Z,77.98
2022-11-05T03:16:37.836Z,78.19
2022-11-05T03:17:38.504Z,78.42
2022-11-05T03:18:39.046Z,78.73
2022-11-05T03:19:39.602Z,79.14
2022-11-05T03:20:40.166Z,79.44
2022-11-05T03:21:40.711Z,79.68
2022-11-05T03:22:41.323Z,79.89
2022-11-05T03:23:41.872Z,79.99
2022-11-05T03:24:42.426Z,79.95
2022-11-05T03:25:42.977Z,79.85
2022-11-05T03:26:43.553Z,79.64
2022-11-05T03:27:44.222Z,79.44
2022-11-05T03:28:44.773Z,79.14
2022-11-05T03:29:45.327Z,78.89
2022-11-05T03:30:45.905Z,78.89
2022-11-05T03:31:46.462Z,78.89
2022-11-05T03:32:47.046Z,79.03
2022-11-05T03:33:47.598Z,79.34
2022-11-05T03:34:48.147Z,79.54
2022-11-05T03:35:48.701Z,79.85
2022-11-05T03:36:49.242Z,79.95
2022-11-05T03:37:49.831Z,80.05
2022-11-05T03:38:50.389Z,80.05
2022-11-05T03:39:50.943Z,80.05
2022-11-05T03:40:51.492Z,80.05
2022-11-05T03:41:52.061Z,80.26
2022-11-05T03:42:52.694Z,80.46
2022-11-05T03:43:53.262Z,80.77
2022-11-05T03:44:53.810Z,81.27
2022-11-05T03:45:54.370Z,81.68
2022-11-05T03:46:54.916Z,82.19
2022-11-05T03:47:55.496Z,82.70
2022-11-05T03:48:56.116Z,83.01
2022-11-05T03:49:56.686Z,83.72
2022-11-05T03:50:57.243Z,84.03
2022-11-05T03:51:57.799Z,84.23
2022-11-05T03:52:58.422Z,84.03
2022-11-05T03:53:58.966Z,84.03
2022-11-05T03:54:59.521Z,83.82
2022-11-05T03:56:00.095Z,83.72
2022-11-05T03:57:00.695Z,83.62
2022-11-05T03:58:01.387Z,83.72
2022-11-05T03:59:01.945Z,83.72
2022-11-05T04:00:02.499Z,83.76
2022-11-05T04:01:03.055Z,83.76
2022-11-05T04:02:03.739Z,83.76
2022-11-05T04:03:04.551Z,83.76
2022-11-05T04:04:05.163Z,83.76
2022-11-05T04:05:05.714Z,83.65
2022-11-05T04:06:06.260Z,83.35
2022-11-05T04:07:06.822Z,83.15
2022-11-05T04:08:12.944Z,82.94
2022-11-05T04:09:08.306Z,82.64
2022-11-05T04:10:08.863Z,82.43
2022-11-05T04:11:09.419Z,82.23
2022-11-05T04:12:09.999Z,82.13
2022-11-05T04:13:10.927Z,82.03
2022-11-05T04:14:11.268Z,82.03
2022-11-05T04:15:11.817Z,81.93
2022-11-05T04:16:12.368Z,81.82
2022-11-05T04:17:12.913Z,81.62
2022-11-05T04:18:13.503Z,81.52
2022-11-05T04:19:14.056Z,81.41
2022-11-05T04:20:14.616Z,81.21
2022-11-05T04:21:15.141Z,81.01
2022-11-05T04:22:15.708Z,80.91
2022-11-05T04:23:16.426Z,80.80
2022-11-05T04:24:16.972Z,80.80
2022-11-05T04:25:17.536Z,80.80
2022-11-05T04:26:18.098Z,80.80
2022-11-05T04:27:18.630Z,80.70
2022-11-05T04:28:19.280Z,80.60
2022-11-05T04:29:19.773Z,80.46
2022-11-05T04:30:20.446Z,80.36
2022-11-05T04:31:21.041Z,80.26
2022-11-05T04:32:22.040Z,80.05
2022-11-05T04:33:22.582Z,80.05
2022-11-05T04:34:23.068Z,80.05
2022-11-05T04:35:24.069Z,80.05
2022-11-05T04:36:24.566Z,80.16
2022-11-05T04:37:25.059Z,80.36
2022-11-05T04:38:25.589Z,80.46
2022-11-05T04:39:26.087Z,80.66
2022-11-05T04:40:27.086Z,80.77
2022-11-05T04:41:27.582Z,80.91
2022-11-05T04:42:28.597Z,80.77
2022-11-05T04:43:29.207Z,80.77
2022-11-05T04:44:29.707Z,80.66
2022-11-05T04:45:30.202Z,80.66
2022-11-05T04:46:30.706Z,80.66
2022-11-05T04:47:31.198Z,80.66
2022-11-05T04:48:32.260Z,80.46
2022-11-05T04:49:32.749Z,80.36
2022-11-05T04:50:33.741Z,80.26
2022-11-05T04:51:34.259Z,80.16
2022-11-05T04:52:34.758Z,80.02
2022-11-05T04:53:35.324Z,79.91
2022-11-05T04:54:35.825Z,79.91
2022-11-05T04:55:36.322Z,79.81
2022-11-05T04:56:36.822Z,79.95
2022-11-05T04:57:37.338Z,80.05
2022-11-05T04:58:37.981Z,80.26
2022-11-05T04:59:38.476Z,80.46
2022-11-05T05:00:39.057Z,80.66
2022-11-05T05:01:39.834Z,80.87
2022-11-05T05:02:40.481Z,81.17
2022-11-05T05:03:40.999Z,81.38
2022-11-05T05:04:41.498Z,81.68
2022-11-05T05:05:41.995Z,81.88
2022-11-05T05:06:42.497Z,81.99
2022-11-05T05:07:42.995Z,82.19
2022-11-05T05:08:43.513Z,82.40
2022-11-05T05:09:44.012Z,82.60
2022-11-05T05:10:44.512Z,82.60
2022-11-05T05:11:45.001Z,82.60
2022-11-05T05:12:45.529Z,82.50
2022-11-05T05:13:46.138Z,82.40
2022-11-05T05:14:46.636Z,82.50
2022-11-05T05:15:47.139Z,82.43
2022-11-05T05:16:47.636Z,82.33
2022-11-05T05:17:48.629Z,82.33
2022-11-05T05:18:49.150Z,82.23
2022-11-05T05:19:49.649Z,82.13
2022-11-05T05:20:50.150Z,81.88
2022-11-05T05:21:50.660Z,81.38
2022-11-05T05:22:51.157Z,80.77
2022-11-05T05:23:51.900Z,79.81
2022-11-05T05:24:53.075Z,79.30
2022-11-05T05:25:53.222Z,78.66
2022-11-05T05:26:53.730Z,78.15
2022-11-05T05:27:54.251Z,77.64
2022-11-05T05:28:54.888Z,77.23
2022-11-05T05:29:55.397Z,76.79
2022-11-05T05:30:58.672Z,76.48
2022-11-05T05:31:56.867Z,76.28
2022-11-05T05:32:57.866Z,76.07
2022-11-05T05:33:58.398Z,75.94
2022-11-05T05:34:58.899Z,75.73
2022-11-05T05:35:59.403Z,75.63
2022-11-05T05:36:59.910Z,75.63
2022-11-05T05:38:00.410Z,75.53
2022-11-05T05:39:00.934Z,75.43
2022-11-05T05:40:01.429Z,75.43
2022-11-05T05:41:01.919Z,75.43
2022-11-05T05:42:02.425Z,75.63
2022-11-05T05:43:02.944Z,75.94
2022-11-05T05:44:03.472Z,76.04
2022-11-05T05:45:03.971Z,76.25
2022-11-05T05:46:04.461Z,76.45
2022-11-05T05:47:04.957Z,76.51
2022-11-05T05:48:05.459Z,76.61
2022-11-05T05:49:12.046Z,76.61
2022-11-05T05:50:06.844Z,76.61
2022-11-05T05:51:07.336Z,76.51
2022-11-05T05:52:07.836Z,76.58
2022-11-05T05:53:08.626Z,76.68
2022-11-05T05:54:09.393Z,76.68
2022-11-05T05:55:09.907Z,76.54
2022-11-05T05:56:10.403Z,76.03
2022-11-05T05:57:10.906Z,75.39
2022-11-05T05:58:11.439Z,74.68
2022-11-05T05:59:12.083Z,73.83
2022-11-05T06:00:12.585Z,73.22
2022-11-05T06:01:18.552Z,72.92
2022-11-05T06:02:14.040Z,72.72
2022-11-05T06:03:14.843Z,72.38
2022-11-05T06:04:15.608Z,71.88
2022-11-05T06:05:16.105Z,71.44
2022-11-05T06:06:16.604Z,71.23
2022-11-05T06:07:17.595Z,70.69
2022-11-05T06:08:18.102Z,69.61
2022-11-05T06:09:18.643Z,67.80
2022-11-05T06:10:19.208Z,64.14
2022-11-05T06:11:19.718Z,61.20
2022-11-05T06:12:20.215Z,59.17
2022-11-05T06:13:20.731Z,57.21
2022-11-05T06:14:21.309Z,55.22
2022-11-05T06:15:21.807Z,52.67
2022-11-05T06:16:22.306Z,50.89
2022-11-05T06:17:23.300Z,49.44
2022-11-05T06:18:23.795Z,48.00
2022-11-05T06:19:24.354Z,47.06
2022-11-05T06:20:24.844Z,46.01
2022-11-05T06:21:25.863Z,44.68
2022-11-05T06:22:26.355Z,43.54
2022-11-05T06:23:26.850Z,42.53
2022-11-05T06:24:27.398Z,41.89
2022-11-05T06:25:27.887Z,41.08
2022-11-05T06:26:28.383Z,40.76
2022-11-05T06:27:28.876Z,40.56
2022-11-05T06:28:29.895Z,40.25
2022-11-05T06:29:30.490Z,40.05
2022-11-05T06:30:31.000Z,39.73
2022-11-05T06:31:31.497Z,39.53
2022-11-05T06:32:32.055Z,39.00
2022-11-05T06:33:32.573Z,38.60
2022-11-05T06:34:33.094Z,38.49
2022-11-05T06:35:33.579Z,38.27
2022-11-05T06:36:34.575Z,37.98
2022-11-05T06:37:35.067Z,38.29
2022-11-05T06:38:35.570Z,38.49
2022-11-05T06:39:36.211Z,38.07
2022-11-05T06:40:36.712Z,37.36
2022-11-05T06:41:56.855Z,37.34
2022-11-05T06:42:38.083Z,37.03
2022-11-05T06:43:38.603Z,36.11
2022-11-05T06:44:39.207Z,35.60
2022-11-05T06:45:39.709Z,35.40
2022-11-05T06:46:43.305Z,34.99
2022-11-05T06:47:41.051Z,34.39
2022-11-05T06:48:42.042Z,34.10
2022-11-05T06:49:43.099Z,33.89
2022-11-05T06:50:43.596Z,33.67
2022-11-05T06:51:44.224Z,33.36
2022-11-05T06:52:44.736Z,33.03
2022-11-05T06:53:45.246Z,32.74
2022-11-05T06:54:45.838Z,32.62
2022-11-05T06:55:46.345Z,32.82
2022-11-05T06:56:46.840Z,32.61
2022-11-05T06:57:47.370Z,31.92
2022-11-05T06:58:47.888Z,31.43
2022-11-05T06:59:48.544Z,31.23
2022-11-05T07:00:49.095Z,30.82
2022-11-05T07:01:49.703Z,30.62
2022-11-05T07:02:50.252Z,30.42
2022-11-05T07:03:51.246Z,30.32
2022-11-05T07:04:51.778Z,30.63
2022-11-05T07:05:52.275Z,30.74
2022-11-05T07:06:52.767Z,31.25
2022-11-05T07:07:53.288Z,30.56
2022-11-05T07:08:54.293Z,30.87
2022-11-05T07:09:54.824Z,30.87
2022-11-05T07:10:55.318Z,31.56
2022-11-05T07:11:55.820Z,31.66
2022-11-05T07:12:56.315Z,31.85
2022-11-05T07:13:56.845Z,31.74
2022-11-05T07:14:57.438Z,31.33
2022-11-05T07:15:57.937Z,31.12
2022-11-05T07:16:58.429Z,30.91
2022-11-05T07:17:58.937Z,30.49
2022-11-05T07:18:59.434Z,30.18
2022-11-05T07:19:59.979Z,29.87
2022-11-05T07:21:00.495Z,29.66
2022-11-05T07:22:00.986Z,29.25
2022-11-05T07:23:01.511Z,29.25
2022-11-05T07:24:02.014Z,29.35
2022-11-05T07:25:02.574Z,29.06
2022-11-05T07:26:03.092Z,29.14
2022-11-05T07:27:03.600Z,28.82
2022-11-05T07:28:04.102Z,28.79
2022-11-05T07:29:04.662Z,28.88
2022-11-05T07:30:05.266Z,28.88
2022-11-05T07:31:05.772Z,29.07
2022-11-05T07:32:06.268Z,29.36
2022-11-05T07:33:07.286Z,30.26
2022-11-05T07:34:07.791Z,31.16
2022-11-05T07:35:08.324Z,31.05
2022-11-05T07:36:08.813Z,30.84
2022-11-05T07:37:09.822Z,30.54
2022-11-05T07:38:10.315Z,30.34
2022-11-05T07:39:10.816Z,30.13
2022-11-05T07:40:11.342Z,29.72
2022-11-05T07:41:11.831Z,30.03
2022-11-05T07:42:12.353Z,30.13
2022-11-05T07:43:13.321Z,30.22
2022-11-05T07:44:13.606Z,30.11
2022-11-05T07:45:14.140Z,30.03
2022-11-05T07:46:14.638Z,30.05
2022-11-05T07:47:15.134Z,30.24
2022-11-05T07:48:15.626Z,30.55
2022-11-05T07:49:16.622Z,30.96
2022-11-05T07:50:17.200Z,31.46
2022-11-05T07:51:17.721Z,31.77
2022-11-05T07:52:18.241Z,32.37
2022-11-05T07:53:18.759Z,32.68
2022-11-05T07:54:19.253Z,32.97
2022-11-05T07:55:19.925Z,33.09
2022-11-05T07:56:20.418Z,33.59
2022-11-05T07:57:20.910Z,34.08
2022-11-05T07:58:21.411Z,34.39
2022-11-05T07:59:21.937Z,34.70
2022-11-05T08:00:22.548Z,34.90
2022-11-05T08:01:23.191Z,35.31
2022-11-05T08:02:24.041Z,35.62
2022-11-05T08:03:24.835Z,35.93
2022-11-05T08:04:25.420Z,36.54
2022-11-05T08:05:25.950Z,36.83
2022-11-05T08:06:26.449Z,37.24
2022-11-05T08:07:26.943Z,37.74
2022-11-05T08:08:27.440Z,37.95
2022-11-05T08:09:27.944Z,38.34
2022-11-05T08:10:28.542Z,38.85
2022-11-05T08:11:29.038Z,38.97
2022-11-05T08:12:29.542Z,39.26
2022-11-05T08:13:30.041Z,39.48
2022-11-05T08:14:30.581Z,39.97
2022-11-05T08:15:31.156Z,40.58
2022-11-05T08:16:31.650Z,41.00
2022-11-05T08:17:32.146Z,41.20
2022-11-05T08:18:32.650Z,41.71
2022-11-05T08:19:33.156Z,42.22
2022-11-05T08:20:33.679Z,42.52
2022-11-05T08:21:34.180Z,43.03
2022-11-05T08:22:34.780Z,43.35
2022-11-05T08:23:35.284Z,43.35
2022-11-05T08:24:35.786Z,43.77
2022-11-05T08:25:36.355Z,44.06
2022-11-05T08:26:36.862Z,43.98
2022-11-05T08:27:37.358Z,44.38
2022-11-05T08:28:37.860Z,44.48
2022-11-05T08:29:38.477Z,44.68
2022-11-05T08:30:39.121Z,44.78
2022-11-05T08:31:39.619Z,44.78
2022-11-05T08:32:40.111Z,44.78
2022-11-05T08:33:40.606Z,44.87
2022-11-05T08:34:41.103Z,44.87
2022-11-05T08:35:42.146Z,44.97
2022-11-05T08:36:42.638Z,44.97
2022-11-05T08:37:43.638Z,45.07
2022-11-05T08:38:44.141Z,44.95
2022-11-05T08:39:44.644Z,44.85
2022-11-05T08:40:45.162Z,44.56
2022-11-05T08:41:45.672Z,44.54
2022-11-05T08:42:46.166Z,44.02
2022-11-05T08:43:46.675Z,43.09
2022-11-05T08:44:47.202Z,41.96
2022-11-05T08:45:47.732Z,40.84
2022-11-05T08:46:48.243Z,39.60
2022-11-05T08:47:48.761Z,38.90
2022-11-05T08:48:49.270Z,38.27
2022-11-05T08:49:49.763Z,37.86
2022-11-05T08:50:50.353Z,37.56
2022-11-05T08:51:50.841Z,37.27
2022-11-05T08:52:51.404Z,37.46
2022-11-05T08:53:51.905Z,37.35
2022-11-05T08:54:52.410Z,36.94
2022-11-05T08:55:52.955Z,36.63
2022-11-05T08:56:53.451Z,36.02
2022-11-05T08:57:53.960Z,35.11
2022-11-05T08:58:54.455Z,34.48
2022-11-05T08:59:54.973Z,33.98
2022-11-05T09:00:59.029Z,33.79
2022-11-05T09:01:56.528Z,33.09
2022-11-05T09:02:57.092Z,33.07
2022-11-05T09:03:57.583Z,32.86
2022-11-05T09:04:58.090Z,32.57
2022-11-05T09:05:58.790Z,32.35
2022-11-05T09:06:59.289Z,31.95
2022-11-05T09:08:01.576Z,31.24
2022-11-05T09:09:00.779Z,30.62
2022-11-05T09:10:01.283Z,29.83
2022-11-05T09:11:01.814Z,29.83
2022-11-05T09:12:17.669Z,29.64
2022-11-05T09:13:03.170Z,29.72
2022-11-05T09:14:03.681Z,29.83
2022-11-05T09:15:04.290Z,29.33
2022-11-05T09:16:04.865Z,28.54
2022-11-05T09:17:05.357Z,28.25
2022-11-05T09:18:05.852Z,28.44
2022-11-05T09:19:06.351Z,28.44
2022-11-05T09:20:07.344Z,28.25
2022-11-05T09:21:07.873Z,28.44
2022-11-05T09:22:08.370Z,28.23
2022-11-05T09:23:09.219Z,27.94
2022-11-05T09:24:09.451Z,28.14
2022-11-05T09:25:09.981Z,28.23
2022-11-05T09:26:10.545Z,28.43
2022-11-05T09:27:11.033Z,28.64
2022-11-05T09:28:16.116Z,28.64
2022-11-05T09:29:14.533Z,28.43
2022-11-05T09:30:13.884Z,28.72
2022-11-05T09:31:14.559Z,28.81
2022-11-05T09:32:15.051Z,28.91
2022-11-05T09:33:16.051Z,28.81
2022-11-05T09:34:16.571Z,29.21
2022-11-05T09:35:17.084Z,29.00
2022-11-05T09:36:17.611Z,28.50
2022-11-05T09:37:18.104Z,28.09
2022-11-05T09:38:19.104Z,27.39
2022-11-05T09:39:19.599Z,27.01
2022-11-05T09:40:20.107Z,27.21
2022-11-05T09:41:20.731Z,27.21
2022-11-05T09:42:21.270Z,27.20
2022-11-05T09:43:23.249Z,27.10
2022-11-05T09:44:22.487Z,27.09
2022-11-05T09:45:23.023Z,26.88
2022-11-05T09:46:23.689Z,26.50
2022-11-05T09:47:24.216Z,26.39
2022-11-05T09:48:24.737Z,26.48
2022-11-05T09:49:25.267Z,26.88
2022-11-05T09:50:25.766Z,26.77
2022-11-05T09:51:26.356Z,26.45
2022-11-05T09:52:26.862Z,26.45
2022-11-05T09:53:27.371Z,25.87
2022-11-05T09:54:27.869Z,25.79
2022-11-05T09:55:28.387Z,26.30
2022-11-05T09:56:28.947Z,26.88
2022-11-05T09:57:29.451Z,26.57
2022-11-05T09:58:30.195Z,26.46
2022-11-05T09:59:30.701Z,25.87
2022-11-05T10:00:31.242Z,25.20
2022-11-05T10:01:32.061Z,25.38
2022-11-05T10:02:32.857Z,24.71
2022-11-05T10:03:33.464Z,24.40
2022-11-05T10:04:33.957Z,24.02
2022-11-05T10:05:35.043Z,24.30
2022-11-05T10:06:35.836Z,24.30
2022-11-05T10:07:36.342Z,24.32
2022-11-05T10:08:36.837Z,24.43
2022-11-05T10:09:37.840Z,24.81
2022-11-05T10:10:41.037Z,24.80
2022-11-05T10:11:38.980Z,24.40
2022-11-05T10:12:39.480Z,23.99
2022-11-05T10:13:40.480Z,23.60
2022-11-05T10:14:40.983Z,23.90
2022-11-05T10:15:41.523Z,23.80
2022-11-05T10:16:42.121Z,23.69
2022-11-05T10:17:42.631Z,23.49
2022-11-05T10:18:43.626Z,23.09
2022-11-05T10:19:44.136Z,22.99
2022-11-05T10:20:44.632Z,23.09
2022-11-05T10:22:05.710Z,22.99
2022-11-05T10:22:49.481Z,22.89
2022-11-05T10:23:46.356Z,22.69
2022-11-05T10:24:46.853Z,22.67
2022-11-05T10:25:47.370Z,23.07
2022-11-05T10:26:47.963Z,23.46
2022-11-05T10:27:48.466Z,23.46
2022-11-05T10:28:48.970Z,23.27
2022-11-05T10:29:49.473Z,23.37
2022-11-05T10:30:50.037Z,23.57
2022-11-05T10:31:50.719Z,23.77
2022-11-05T10:32:51.212Z,23.86
2022-11-05T10:33:51.712Z,23.86
2022-11-05T10:34:52.706Z,23.75
2022-11-05T10:35:53.702Z,23.66
2022-11-05T10:36:54.311Z,23.55
2022-11-05T10:37:54.847Z,23.14
2022-11-05T10:38:55.363Z,23.35
2022-11-05T10:39:55.884Z,23.65
2022-11-05T10:40:56.400Z,23.93
2022-11-05T10:41:56.985Z,24.15
2022-11-05T10:42:57.496Z,24.34
2022-11-05T10:43:57.990Z,24.55
2022-11-05T10:44:58.487Z,24.63
2022-11-05T10:45:59.026Z,24.54
2022-11-05T10:46:59.549Z,24.24
2022-11-05T10:48:00.043Z,24.04
2022-11-05T10:49:00.558Z,24.24
2022-11-05T10:50:01.553Z,24.65
2022-11-05T10:51:02.057Z,25.33
2022-11-05T10:52:02.642Z,25.13
2022-11-05T10:53:03.134Z,25.15
2022-11-05T10:54:03.645Z,25.55
2022-11-05T10:55:04.146Z,26.34
2022-11-05T10:56:04.648Z,26.65
2022-11-05T10:57:05.212Z,26.65
2022-11-05T10:58:05.714Z,26.34
2022-11-05T10:59:11.845Z,26.25
2022-11-05T11:00:07.086Z,26.15
2022-11-05T11:01:07.780Z,26.06
2022-11-05T11:02:08.585Z,26.25
2022-11-05T11:03:09.520Z,25.96
2022-11-05T11:04:09.779Z,25.86
2022-11-05T11:05:10.293Z,26.06
2022-11-05T11:06:10.797Z,25.96
2022-11-05T11:07:11.460Z,25.75
2022-11-05T11:08:11.974Z,25.75
2022-11-05T11:09:12.491Z,25.85
2022-11-05T11:10:13.020Z,25.85
2022-11-05T11:11:13.514Z,25.55
2022-11-05T11:12:14.044Z,25.74
2022-11-05T11:13:14.549Z,25.34
2022-11-05T11:14:15.051Z,25.64
2022-11-05T11:15:15.548Z,25.84
2022-11-05T11:16:16.103Z,25.63
2022-11-05T11:17:16.680Z,25.33
2022-11-05T11:18:17.170Z,25.33
2022-11-05T11:19:17.672Z,25.12
2022-11-05T11:20:18.248Z,25.03
2022-11-05T11:21:18.815Z,24.93
2022-11-05T11:22:19.365Z,24.73
2022-11-05T11:23:19.867Z,24.15
2022-11-05T11:24:20.887Z,24.15
2022-11-05T11:25:21.389Z,24.24
2022-11-05T11:26:21.895Z,24.14
2022-11-05T11:27:22.952Z,24.54
2022-11-05T11:28:23.453Z,24.74
2022-11-05T11:29:23.947Z,25.23
2022-11-05T11:30:24.944Z,25.54
2022-11-05T11:31:25.486Z,25.64
2022-11-05T11:32:26.036Z,25.64
2022-11-05T11:33:26.549Z,25.85
2022-11-05T11:34:27.049Z,25.85
2022-11-05T11:35:27.548Z,26.06
2022-11-05T11:36:28.052Z,26.25
2022-11-05T11:37:28.581Z,26.33
2022-11-05T11:38:29.087Z,26.44
2022-11-05T11:39:29.583Z,26.54
2022-11-05T11:40:30.577Z,26.34
2022-11-05T11:41:31.076Z,26.44
2022-11-05T11:42:31.606Z,26.82
2022-11-05T11:43:32.119Z,26.82
2022-11-05T11:44:32.621Z,26.64
2022-11-05T11:45:33.124Z,26.54
2022-11-05T11:46:34.141Z,26.54
2022-11-05T11:47:34.679Z,26.34
2022-11-05T11:48:35.166Z,26.34
2022-11-05T11:49:36.166Z,26.44
2022-11-05T11:50:36.664Z,26.95
2022-11-05T11:51:37.167Z,26.95
2022-11-05T11:52:37.756Z,27.35
2022-11-05T11:53:38.258Z,27.04
2022-11-05T11:54:38.776Z,27.06
2022-11-05T11:55:39.277Z,27.35
2022-11-05T11:56:39.783Z,27.15
2022-11-05T11:57:40.375Z,27.14
2022-11-05T11:58:40.879Z,27.35
2022-11-05T12:00:07.107Z,27.35
2022-11-05T12:00:42.237Z,27.45
2022-11-05T12:01:42.835Z,27.86
2022-11-05T12:02:43.560Z,28.05
2022-11-05T12:03:44.110Z,28.15
2022-11-05T12:04:44.617Z,27.85
2022-11-05T12:05:45.119Z,27.94
2022-11-05T12:06:45.685Z,28.34
2022-11-05T12:07:46.221Z,28.26
2022-11-05T12:08:49.489Z,28.36
2022-11-05T12:09:47.583Z,28.56
2022-11-05T12:10:48.080Z,28.97
2022-11-05T12:11:48.584Z,29.08
2022-11-05T12:12:49.238Z,28.89
2022-11-05T12:13:49.729Z,28.80
2022-11-05T12:14:50.255Z,29.60
2022-11-05T12:15:50.794Z,29.69
2022-11-05T12:16:51.322Z,30.00
2022-11-05T12:17:51.922Z,30.19
2022-11-05T12:18:52.418Z,30.58
2022-11-05T12:19:52.941Z,29.87
2022-11-05T12:20:57.958Z,29.57
2022-11-05T12:21:54.271Z,29.66
2022-11-05T12:22:54.813Z,29.36
2022-11-05T12:23:55.313Z,28.47
2022-11-05T12:24:55.811Z,28.66
2022-11-05T12:25:56.312Z,28.77
2022-11-05T12:26:57.301Z,29.47
2022-11-05T12:27:57.873Z,29.88
2022-11-05T12:29:17.881Z,29.88
2022-11-05T12:29:59.241Z,30.09
2022-11-05T12:30:59.747Z,30.29
2022-11-05T12:32:00.267Z,30.58
2022-11-05T12:33:00.934Z,30.37
2022-11-05T12:34:01.497Z,29.68
2022-11-05T12:35:02.005Z,29.68
2022-11-05T12:36:02.501Z,29.08
2022-11-05T12:37:03.002Z,28.77
2022-11-05T12:38:03.536Z,28.18
2022-11-05T12:39:04.034Z,28.18
2022-11-05T12:40:04.535Z,28.17
2022-11-05T12:41:05.550Z,28.56
2022-11-05T12:42:06.054Z,28.66
2022-11-05T12:43:11.582Z,28.86
2022-11-05T12:44:07.448Z,28.56
2022-11-05T12:45:07.951Z,28.66
2022-11-05T12:46:08.453Z,28.96
2022-11-05T12:47:09.091Z,28.18
2022-11-05T12:48:09.628Z,28.18
2022-11-05T12:49:10.129Z,28.17
2022-11-05T12:50:10.620Z,28.07
2022-11-05T12:52:12.472Z,28.66
2022-11-05T12:53:13.333Z,28.55
2022-11-05T12:54:13.578Z,28.76
2022-11-05T12:55:14.088Z,28.77
2022-11-05T12:56:14.584Z,28.76
2022-11-05T12:57:15.092Z,28.38
2022-11-05T12:58:15.676Z,28.58
2022-11-05T12:59:16.174Z,28.28
2022-11-05T13:00:16.690Z,28.47
2022-11-05T13:01:17.400Z,28.68